createdAt,value
2019-03-24T00:00:19.044Z,34.53
2019-03-24T00:02:48.522Z,32.30
2019-03-24T00:05:18.012Z,38.30
2019-03-24T00:07:47.498Z,32.27
2019-03-24T00:10:17.045Z,40.20
2019-03-24T00:12:46.553Z,36.27
2019-03-24T00:15:25.673Z,41.80
2019-03-24T00:17:47.350Z,35.50
2019-03-24T00:20:16.910Z,43.80
2019-03-24T00:22:46.377Z,38.67
2019-03-24T00:25:15.886Z,45.17
2019-03-24T00:27:45.367Z,53.70
2019-03-24T00:30:15.185Z,47.47
2019-03-24T00:32:44.682Z,55.40
2019-03-24T00:35:14.306Z,42.90
2019-03-24T00:37:43.779Z,30.13
2019-03-24T00:40:13.713Z,31.60
2019-03-24T00:42:43.255Z,33.17
2019-03-24T00:45:12.995Z,32.57
2019-03-24T00:47:42.460Z,30.10
2019-03-24T00:50:12.158Z,34.40
2019-03-24T00:52:41.915Z,32.23
2019-03-24T00:55:11.692Z,38.97
2019-03-24T00:57:41.195Z,32.30
2019-03-24T01:00:12.678Z,32.60
2019-03-24T01:02:42.158Z,27.67
2019-03-24T01:05:11.803Z,30.80
2019-03-24T01:07:41.280Z,34.37
2019-03-24T01:10:11.317Z,38.87
2019-03-24T01:12:41.701Z,30.10
2019-03-24T01:15:11.411Z,32.57
2019-03-24T01:17:40.903Z,32.10
2019-03-24T01:20:10.743Z,34.17
2019-03-24T01:22:40.237Z,31.43
2019-03-24T01:25:09.937Z,29.40
2019-03-24T01:27:39.405Z,31.27
2019-03-24T01:30:10.220Z,27.27
2019-03-24T01:32:39.725Z,30.60
2019-03-24T01:35:09.938Z,29.17
2019-03-24T01:37:39.448Z,26.90
2019-03-24T01:40:09.143Z,30.87
2019-03-24T01:42:38.676Z,34.37
2019-03-24T01:45:10.882Z,32.73
2019-03-24T01:47:40.480Z,29.53
2019-03-24T01:50:10.497Z,40.77
2019-03-24T01:52:40.009Z,31.70
2019-03-24T01:55:09.843Z,31.07
2019-03-24T01:57:39.312Z,31.87
2019-03-24T02:00:09.647Z,31.67
2019-03-24T02:02:39.165Z,29.67
2019-03-24T02:05:09.326Z,37.67
2019-03-24T02:07:38.882Z,29.60
2019-03-24T02:10:10.262Z,34.58
2019-03-24T02:12:39.740Z,33.50
2019-03-24T02:15:10.245Z,27.30
2019-03-24T02:17:39.860Z,26.30
2019-03-24T02:20:09.945Z,38.33
2019-03-24T02:22:39.430Z,33.87
2019-03-24T02:25:09.638Z,33.83
2019-03-24T02:27:39.119Z,32.10
2019-03-24T02:30:10.058Z,29.07
2019-03-24T02:32:39.515Z,28.53
2019-03-24T02:35:09.360Z,25.45
2019-03-24T02:37:38.859Z,26.20
2019-03-24T02:40:10.924Z,28.55
2019-03-24T02:42:40.400Z,25.00
2019-03-24T02:45:11.005Z,29.07
2019-03-24T02:47:40.548Z,25.90
2019-03-24T02:50:10.196Z,28.20
2019-03-24T02:52:39.691Z,26.53
2019-03-24T02:55:09.782Z,33.37
2019-03-24T02:57:39.275Z,28.30
2019-03-24T03:00:10.931Z,39.92
2019-03-24T03:02:40.670Z,34.17
2019-03-24T03:05:10.585Z,42.97
2019-03-24T03:07:40.336Z,42.60
2019-03-24T03:10:11.320Z,40.67
2019-03-24T03:12:40.787Z,37.40
2019-03-24T03:15:10.998Z,42.17
2019-03-24T03:17:40.711Z,36.67
2019-03-24T03:20:10.699Z,38.70
2019-03-24T03:22:40.323Z,41.70
2019-03-24T03:25:10.709Z,36.80
2019-03-24T03:27:40.207Z,44.80
2019-03-24T03:30:11.397Z,37.57
2019-03-24T03:32:40.874Z,42.57
2019-03-24T03:35:11.343Z,37.97
2019-03-24T03:37:40.932Z,36.20
2019-03-24T03:40:11.170Z,35.87
2019-03-24T03:42:41.318Z,36.67
2019-03-24T03:45:11.993Z,38.40
2019-03-24T03:47:41.542Z,32.00
2019-03-24T03:50:11.844Z,36.40
2019-03-24T03:52:41.344Z,33.77
2019-03-24T03:55:10.953Z,35.37
2019-03-24T03:57:40.429Z,36.67
2019-03-24T04:00:10.638Z,30.03
2019-03-24T04:02:40.115Z,31.90
2019-03-24T04:05:10.423Z,31.57
2019-03-24T04:07:39.906Z,32.37
2019-03-24T04:10:10.251Z,31.40
2019-03-24T04:12:39.744Z,29.03
2019-03-24T04:15:09.738Z,36.15
2019-03-24T04:17:39.231Z,29.40
2019-03-24T04:20:09.602Z,30.75
2019-03-24T04:22:39.079Z,32.37
2019-03-24T04:25:09.639Z,31.95
2019-03-24T04:27:39.144Z,29.07
2019-03-24T04:30:10.545Z,26.74
2019-03-24T04:32:40.031Z,27.00
2019-03-24T04:35:09.963Z,31.00
2019-03-24T04:37:39.439Z,31.70
2019-03-24T04:40:09.851Z,31.57
2019-03-24T04:42:39.349Z,29.80
2019-03-24T04:45:10.069Z,28.10
2019-03-24T04:47:39.538Z,28.40
2019-03-24T04:50:10.175Z,29.35
2019-03-24T04:52:39.661Z,30.50
2019-03-24T04:55:10.128Z,28.65
2019-03-24T04:57:39.622Z,29.00
2019-03-24T05:00:11.263Z,26.85
2019-03-24T05:02:40.883Z,23.70
2019-03-24T05:05:11.011Z,24.80
2019-03-24T05:07:40.870Z,23.67
2019-03-24T05:10:15.055Z,28.33
2019-03-24T05:12:44.525Z,24.60
2019-03-24T05:15:14.024Z,27.20
2019-03-24T05:17:43.510Z,26.17
2019-03-24T05:20:13.016Z,26.87
2019-03-24T05:22:42.513Z,26.80
2019-03-24T05:25:11.996Z,25.00
2019-03-24T05:27:41.471Z,21.47
2019-03-24T05:30:11.219Z,22.33
2019-03-24T05:32:40.685Z,23.70
2019-03-24T05:35:10.174Z,19.97
2019-03-24T05:37:39.646Z,25.40
2019-03-24T05:40:09.916Z,22.93
2019-03-24T05:42:39.390Z,25.07
2019-03-24T05:45:10.207Z,28.32
2019-03-24T05:47:39.780Z,27.00
2019-03-24T05:50:10.272Z,23.27
2019-03-24T05:52:39.769Z,22.00
2019-03-24T05:55:10.076Z,23.15
2019-03-24T05:57:39.569Z,22.67
2019-03-24T06:00:11.204Z,20.50
2019-03-24T06:02:40.675Z,21.63
2019-03-24T06:05:10.239Z,24.53
2019-03-24T06:07:39.713Z,22.90
2019-03-24T06:10:10.391Z,22.58
2019-03-24T06:12:39.881Z,21.77
2019-03-24T06:15:10.474Z,25.12
2019-03-24T06:17:47.473Z,24.77
2019-03-24T06:20:11.295Z,23.10
2019-03-24T06:22:40.769Z,21.80
2019-03-24T06:25:10.464Z,27.63
2019-03-24T06:27:39.970Z,27.13
2019-03-24T06:30:11.835Z,26.77
2019-03-24T06:32:41.317Z,19.00
2019-03-24T06:35:11.048Z,19.77
2019-03-24T06:37:40.606Z,20.37
2019-03-24T06:40:10.324Z,22.50
2019-03-24T06:42:39.801Z,26.07
2019-03-24T06:45:10.198Z,21.80
2019-03-24T06:47:39.670Z,26.30
2019-03-24T06:50:11.284Z,27.73
2019-03-24T06:52:41.038Z,21.90
2019-03-24T06:55:10.762Z,21.40
2019-03-24T06:57:40.335Z,24.77
2019-03-24T07:00:10.903Z,21.87
2019-03-24T07:02:40.410Z,21.60
2019-03-24T07:05:10.193Z,19.05
2019-03-24T07:07:39.681Z,21.23
2019-03-24T07:10:11.496Z,23.47
2019-03-24T07:12:40.979Z,20.40
2019-03-24T07:15:11.178Z,21.17
2019-03-24T07:17:40.921Z,22.57
2019-03-24T07:20:12.595Z,23.00
2019-03-24T07:22:42.089Z,22.87
2019-03-24T07:25:11.914Z,27.47
2019-03-24T07:27:41.406Z,19.90
2019-03-24T07:30:12.020Z,21.00
2019-03-24T07:32:41.502Z,17.77
2019-03-24T07:35:11.066Z,19.67
2019-03-24T07:37:40.533Z,16.67
2019-03-24T07:40:10.723Z,22.48
2019-03-24T07:42:40.228Z,21.20
2019-03-24T07:45:10.523Z,25.43
2019-03-24T07:47:40.282Z,21.70
2019-03-24T07:50:10.729Z,20.12
2019-03-24T07:52:40.220Z,21.43
2019-03-24T07:55:10.325Z,24.63
2019-03-24T07:57:39.867Z,20.50
2019-03-24T08:00:11.627Z,19.87
2019-03-24T08:02:50.968Z,17.67
2019-03-24T08:05:17.009Z,19.07
2019-03-24T08:07:46.505Z,16.70
2019-03-24T08:10:15.987Z,17.57
2019-03-24T08:12:45.565Z,20.80
2019-03-24T08:15:15.105Z,21.12
2019-03-24T08:17:44.573Z,18.13
2019-03-24T08:20:14.141Z,17.80
2019-03-24T08:22:43.946Z,22.70
2019-03-24T08:25:13.663Z,21.20
2019-03-24T08:27:43.157Z,21.47
2019-03-24T08:30:12.719Z,17.43
2019-03-24T08:32:42.183Z,15.63
2019-03-24T08:35:11.750Z,22.30
2019-03-24T08:37:41.227Z,16.57
2019-03-24T08:40:10.792Z,19.73
2019-03-24T08:42:40.354Z,19.77
2019-03-24T08:45:15.109Z,20.70
2019-03-24T08:47:44.604Z,19.40
2019-03-24T08:50:14.156Z,16.67
2019-03-24T08:52:43.657Z,22.10
2019-03-24T08:55:13.143Z,20.40
2019-03-24T08:57:42.612Z,19.37
2019-03-24T09:00:12.115Z,20.73
2019-03-24T09:02:41.854Z,21.50
2019-03-24T09:05:11.492Z,18.77
2019-03-24T09:07:41.145Z,21.37
2019-03-24T09:10:10.980Z,19.30
2019-03-24T09:12:40.484Z,16.17
2019-03-24T09:15:10.942Z,21.50
2019-03-24T09:17:41.371Z,19.70
2019-03-24T09:20:11.219Z,19.10
2019-03-24T09:22:40.698Z,18.97
2019-03-24T09:25:11.327Z,22.35
2019-03-24T09:27:40.897Z,22.53
2019-03-24T09:30:28.971Z,19.67
2019-03-24T09:32:58.615Z,20.47
2019-03-24T09:35:28.971Z,22.90
2019-03-24T09:37:58.539Z,19.77
2019-03-24T09:40:32.967Z,18.67
2019-03-24T09:43:04.148Z,19.50
2019-03-24T09:45:33.839Z,19.00
2019-03-24T09:48:03.681Z,21.00
2019-03-24T09:50:33.538Z,23.00
2019-03-24T09:53:03.221Z,19.20
2019-03-24T09:55:32.719Z,20.40
2019-03-24T09:58:02.225Z,19.50
2019-03-24T10:00:31.735Z,18.30
2019-03-24T10:03:01.252Z,21.60
2019-03-24T10:05:30.699Z,24.60
2019-03-24T10:08:00.198Z,21.77
2019-03-24T10:10:29.688Z,22.00
2019-03-24T10:12:59.187Z,21.10
2019-03-24T10:15:28.665Z,24.40
2019-03-24T10:17:58.140Z,23.00
2019-03-24T10:20:27.720Z,25.02
2019-03-24T10:22:57.198Z,29.10
2019-03-24T10:25:26.692Z,22.67
2019-03-24T10:27:56.192Z,21.17
2019-03-24T10:30:25.673Z,20.53
2019-03-24T10:32:55.252Z,22.33
2019-03-24T10:35:24.737Z,28.53
2019-03-24T10:37:54.496Z,24.47
2019-03-24T10:40:28.607Z,23.17
2019-03-24T10:42:55.186Z,19.90
2019-03-24T10:45:24.664Z,21.37
2019-03-24T10:47:54.159Z,23.43
2019-03-24T10:50:23.654Z,19.07
2019-03-24T10:52:53.163Z,20.67
2019-03-24T10:55:22.715Z,19.30
2019-03-24T10:57:52.193Z,21.97
2019-03-24T11:00:38.170Z,23.10
2019-03-24T11:03:07.796Z,20.93
2019-03-24T11:05:37.276Z,19.47
2019-03-24T11:08:06.875Z,19.13
2019-03-24T11:10:36.357Z,18.33
2019-03-24T11:13:06.080Z,16.77
2019-03-24T11:15:35.672Z,24.10
2019-03-24T11:18:05.226Z,18.20
2019-03-24T11:20:34.716Z,22.63
2019-03-24T11:23:04.231Z,17.37
2019-03-24T11:25:33.715Z,17.00
2019-03-24T11:28:03.358Z,20.67
2019-03-24T11:30:32.902Z,14.93
2019-03-24T11:33:02.372Z,16.40
2019-03-24T11:35:31.884Z,15.33
2019-03-24T11:38:01.359Z,18.00
2019-03-24T11:40:30.844Z,19.17
2019-03-24T11:43:00.343Z,14.97
2019-03-24T11:45:29.829Z,18.90
2019-03-24T11:47:59.321Z,17.87
2019-03-24T11:50:28.826Z,15.80
2019-03-24T11:52:58.303Z,18.50
2019-03-24T11:55:29.489Z,15.40
2019-03-24T11:58:05.674Z,16.17
2019-03-24T12:00:38.741Z,13.57
2019-03-24T12:03:08.397Z,15.00
2019-03-24T12:05:37.882Z,11.23
2019-03-24T12:08:07.422Z,12.97
2019-03-24T12:10:37.056Z,12.67
2019-03-24T12:13:06.707Z,14.60
2019-03-24T12:15:36.390Z,13.87
2019-03-24T12:18:05.943Z,10.53
2019-03-24T12:20:35.444Z,15.40
2019-03-24T12:23:04.942Z,18.43
2019-03-24T12:25:34.427Z,12.07
2019-03-24T12:28:04.040Z,15.87
2019-03-24T12:30:33.561Z,9.20
2019-03-24T12:33:03.068Z,15.83
2019-03-24T12:35:32.548Z,18.27
2019-03-24T12:38:02.056Z,10.37
2019-03-24T12:40:31.565Z,18.77
2019-03-24T12:43:01.066Z,14.53
2019-03-24T12:45:33.780Z,16.20
2019-03-24T12:48:03.364Z,12.80
2019-03-24T12:50:32.829Z,10.97
2019-03-24T12:53:02.311Z,18.07
2019-03-24T12:55:31.893Z,12.63
2019-03-24T12:58:01.452Z,12.17
2019-03-24T13:00:36.423Z,12.80
2019-03-24T13:03:06.513Z,12.50
2019-03-24T13:05:36.003Z,14.60
2019-03-24T13:08:16.744Z,13.93
2019-03-24T13:10:46.733Z,14.53
2019-03-24T13:13:16.374Z,15.10
2019-03-24T13:15:46.027Z,18.50
2019-03-24T13:18:15.507Z,12.70
2019-03-24T13:20:45.084Z,14.87
2019-03-24T13:23:14.567Z,16.73
2019-03-24T13:25:44.140Z,11.73
2019-03-24T13:28:13.620Z,12.60
2019-03-24T13:30:43.105Z,10.57
2019-03-24T13:33:12.598Z,10.50
2019-03-24T13:35:42.418Z,12.33
2019-03-24T13:38:11.909Z,9.97
2019-03-24T13:40:41.395Z,11.93
2019-03-24T13:43:10.872Z,8.23
2019-03-24T13:45:40.348Z,11.60
2019-03-24T13:48:09.840Z,9.47
2019-03-24T13:50:39.345Z,10.30
2019-03-24T13:53:08.919Z,11.67
2019-03-24T13:55:38.410Z,8.27
2019-03-24T13:58:08.152Z,11.67
2019-03-24T14:00:37.652Z,9.67
2019-03-24T14:03:07.152Z,9.37
2019-03-24T14:05:36.630Z,8.97
2019-03-24T14:08:06.175Z,13.43
2019-03-24T14:10:35.677Z,12.63
2019-03-24T14:13:05.314Z,11.27
2019-03-24T14:15:34.797Z,10.87
2019-03-24T14:18:04.295Z,9.80
2019-03-24T14:20:42.961Z,8.20
2019-03-24T14:23:05.119Z,7.40
2019-03-24T14:25:34.624Z,11.27
2019-03-24T14:28:04.127Z,10.27
2019-03-24T14:30:45.294Z,8.57
2019-03-24T14:33:15.089Z,9.07
2019-03-24T14:35:44.632Z,7.10
2019-03-24T14:38:14.237Z,10.70
2019-03-24T14:40:43.822Z,5.90
2019-03-24T14:43:13.315Z,6.40
2019-03-24T14:45:42.788Z,7.27
2019-03-24T14:48:12.291Z,8.70
2019-03-24T14:50:41.794Z,6.23
2019-03-24T14:53:11.286Z,6.37
2019-03-24T14:55:40.769Z,7.97
2019-03-24T14:58:10.330Z,7.47
2019-03-24T15:00:42.116Z,5.70
2019-03-24T15:03:12.129Z,7.77
2019-03-24T15:05:41.865Z,9.13
2019-03-24T15:08:11.740Z,6.53
2019-03-24T15:10:41.253Z,9.27
2019-03-24T15:13:10.729Z,8.63
2019-03-24T15:15:40.268Z,8.87
2019-03-24T15:18:09.777Z,10.10
2019-03-24T15:20:39.251Z,9.07
2019-03-24T15:23:08.727Z,11.60
2019-03-24T15:25:38.232Z,10.83
2019-03-24T15:28:07.776Z,10.23
2019-03-24T15:30:37.255Z,11.10
2019-03-24T15:33:06.765Z,9.20
2019-03-24T15:35:36.265Z,12.70
2019-03-24T15:38:08.806Z,14.53
2019-03-24T15:40:37.225Z,10.27
2019-03-24T15:43:06.777Z,16.77
2019-03-24T15:45:36.280Z,8.07
2019-03-24T15:48:05.985Z,13.20
2019-03-24T15:50:35.474Z,9.27
2019-03-24T15:53:05.089Z,8.83
2019-03-24T15:55:34.587Z,16.77
2019-03-24T15:58:04.141Z,8.93
2019-03-24T16:00:42.716Z,11.43
2019-03-24T16:03:12.358Z,11.40
2019-03-24T16:05:41.840Z,11.83
2019-03-24T16:08:11.313Z,10.37
2019-03-24T16:10:40.812Z,9.27
2019-03-24T16:13:10.304Z,17.10
2019-03-24T16:15:39.810Z,7.47
2019-03-24T16:18:09.284Z,11.50
2019-03-24T16:20:38.767Z,9.45
2019-03-24T16:23:08.263Z,10.00
2019-03-24T16:25:37.737Z,14.95
2019-03-24T16:28:07.307Z,8.10
2019-03-24T16:30:36.793Z,10.03
2019-03-24T16:33:06.340Z,8.80
2019-03-24T16:35:35.839Z,7.90
2019-03-24T16:38:05.391Z,15.33
2019-03-24T16:40:34.887Z,8.37
2019-03-24T16:43:04.460Z,13.80
2019-03-24T16:45:34.013Z,9.83
2019-03-24T16:48:03.675Z,12.07
2019-03-24T16:50:33.189Z,18.10
2019-03-24T16:53:02.678Z,6.97
2019-03-24T16:55:32.165Z,12.40
2019-03-24T16:58:01.652Z,9.23
2019-03-24T17:00:31.157Z,8.98
2019-03-24T17:03:00.630Z,6.20
2019-03-24T17:05:31.744Z,7.93
2019-03-24T17:08:01.242Z,8.70
2019-03-24T17:10:30.722Z,9.47
2019-03-24T17:13:00.192Z,7.07
2019-03-24T17:15:29.767Z,9.77
2019-03-24T17:17:59.243Z,8.40
2019-03-24T17:20:28.739Z,9.27
2019-03-24T17:22:58.273Z,7.60
2019-03-24T17:25:27.810Z,8.57
2019-03-24T17:27:57.303Z,10.50
2019-03-24T17:30:26.776Z,8.73
2019-03-24T17:32:56.246Z,6.90
2019-03-24T17:35:25.737Z,6.80
2019-03-24T17:37:55.213Z,6.00
2019-03-24T17:40:24.710Z,6.87
2019-03-24T17:42:54.188Z,5.77
2019-03-24T17:45:23.663Z,9.77
2019-03-24T17:47:53.163Z,6.60
2019-03-24T17:50:22.703Z,10.97
2019-03-24T17:52:52.173Z,6.63
2019-03-24T17:55:27.660Z,6.80
2019-03-24T17:57:52.897Z,6.50
2019-03-24T18:00:35.390Z,6.03
2019-03-24T18:03:04.996Z,6.53
2019-03-24T18:05:34.474Z,5.28
2019-03-24T18:08:03.970Z,6.77
2019-03-24T18:10:33.450Z,6.30
2019-03-24T18:13:02.916Z,6.43
2019-03-24T18:15:35.201Z,24.07
2019-03-24T18:18:04.662Z,6.70
2019-03-24T18:20:37.447Z,6.80
2019-03-24T18:23:06.945Z,11.57
2019-03-24T18:25:36.489Z,5.30
2019-03-24T18:28:06.096Z,8.77
2019-03-24T18:30:35.704Z,6.10
2019-03-24T18:33:05.340Z,4.40
2019-03-24T18:35:34.813Z,7.93
2019-03-24T18:38:04.471Z,8.43
2019-03-24T18:40:33.944Z,7.70
2019-03-24T18:43:03.428Z,9.03
2019-03-24T18:45:32.903Z,8.80
2019-03-24T18:48:02.401Z,8.47
2019-03-24T18:50:31.865Z,3.75
2019-03-24T18:53:01.375Z,7.43
2019-03-24T18:55:30.926Z,6.80
2019-03-24T18:58:00.399Z,3.70
2019-03-24T19:00:29.918Z,7.93
2019-03-24T19:02:59.387Z,7.57
2019-03-24T19:05:28.883Z,7.80
2019-03-24T19:07:58.353Z,10.60
2019-03-24T19:10:27.860Z,5.30
2019-03-24T19:12:57.472Z,10.03
2019-03-24T19:15:26.952Z,11.20
2019-03-24T19:17:56.606Z,9.47
2019-03-24T19:20:26.117Z,10.97
2019-03-24T19:22:56.061Z,5.13
2019-03-24T19:25:25.551Z,6.20
2019-03-24T19:27:55.051Z,6.23
2019-03-24T19:30:37.246Z,8.50
2019-03-24T19:33:07.050Z,3.40
2019-03-24T19:35:36.746Z,4.27
2019-03-24T19:38:06.305Z,5.07
2019-03-24T19:40:35.841Z,3.90
2019-03-24T19:43:05.470Z,3.70
2019-03-24T19:45:35.011Z,4.15
2019-03-24T19:48:04.620Z,4.93
2019-03-24T19:50:34.143Z,4.00
2019-03-24T19:53:03.615Z,6.07
2019-03-24T19:55:33.091Z,5.97
2019-03-24T19:58:02.580Z,5.00
2019-03-24T20:00:32.059Z,5.00
2019-03-24T20:03:01.530Z,3.20
2019-03-24T20:05:31.990Z,5.80
2019-03-24T20:08:01.484Z,3.97
2019-03-24T20:10:30.954Z,3.77
2019-03-24T20:13:00.442Z,3.90
2019-03-24T20:15:29.988Z,5.20
2019-03-24T20:17:59.440Z,5.93
2019-03-24T20:20:28.931Z,5.10
2019-03-24T20:22:58.672Z,4.20
2019-03-24T20:25:28.173Z,4.73
2019-03-24T20:27:57.686Z,6.50
2019-03-24T20:30:27.396Z,4.30
2019-03-24T20:32:56.886Z,6.33
2019-03-24T20:35:26.361Z,7.30
2019-03-24T20:37:55.842Z,5.60
2019-03-24T20:40:25.409Z,5.73
2019-03-24T20:42:54.898Z,6.47
2019-03-24T20:45:24.447Z,6.30
2019-03-24T20:47:53.933Z,7.53
2019-03-24T20:50:23.482Z,6.00
2019-03-24T20:53:03.666Z,6.10
2019-03-24T20:55:24.167Z,7.70
2019-03-24T20:57:53.661Z,5.10
2019-03-24T21:00:36.880Z,4.47
2019-03-24T21:03:08.639Z,7.90
2019-03-24T21:05:38.238Z,8.57
2019-03-24T21:08:08.109Z,9.27
2019-03-24T21:10:37.736Z,11.23
2019-03-24T21:13:07.296Z,16.80
2019-03-24T21:15:36.783Z,12.87
2019-03-24T21:18:06.396Z,9.63
2019-03-24T21:20:35.885Z,6.27
2019-03-24T21:23:05.620Z,8.10
2019-03-24T21:25:35.228Z,6.03
2019-03-24T21:28:04.782Z,6.03
2019-03-24T21:30:39.972Z,7.97
2019-03-24T21:33:09.599Z,7.27
2019-03-24T21:35:39.070Z,6.73
2019-03-24T21:38:08.601Z,5.47
2019-03-24T21:40:38.424Z,7.00
2019-03-24T21:43:07.964Z,8.67
2019-03-24T21:45:37.442Z,8.87
2019-03-24T21:48:07.105Z,11.60
2019-03-24T21:50:36.584Z,5.50
2019-03-24T21:53:06.128Z,8.90
2019-03-24T21:55:35.757Z,7.60
2019-03-24T21:58:05.495Z,6.87
2019-03-24T22:00:36.283Z,7.70
2019-03-24T22:03:06.316Z,7.30
2019-03-24T22:05:35.844Z,6.40
2019-03-24T22:08:05.460Z,5.77
2019-03-24T22:10:35.009Z,6.60
2019-03-24T22:13:04.666Z,6.60
2019-03-24T22:15:36.855Z,6.83
2019-03-24T22:18:06.407Z,7.83
2019-03-24T22:20:35.874Z,6.30
2019-03-24T22:23:05.350Z,9.13
2019-03-24T22:25:37.545Z,9.60
2019-03-24T22:28:07.156Z,8.70
2019-03-24T22:30:36.624Z,5.67
2019-03-24T22:33:06.253Z,8.97
2019-03-24T22:35:35.795Z,4.77
2019-03-24T22:38:05.419Z,5.80
2019-03-24T22:40:34.899Z,6.87
2019-03-24T22:43:04.368Z,5.33
2019-03-24T22:45:33.833Z,7.07
2019-03-24T22:48:03.326Z,5.63
2019-03-24T22:50:32.793Z,6.40
2019-03-24T22:53:02.261Z,6.10
2019-03-24T22:55:31.761Z,5.40
2019-03-24T22:58:01.227Z,6.37
2019-03-24T23:00:48.475Z,7.27
2019-03-24T23:03:17.969Z,5.80
2019-03-24T23:05:47.519Z,7.37
2019-03-24T23:08:16.999Z,5.67
2019-03-24T23:10:46.480Z,5.93
2019-03-24T23:13:15.943Z,5.20
2019-03-24T23:15:45.434Z,5.93
2019-03-24T23:18:14.921Z,7.13
2019-03-24T23:20:44.454Z,5.93
2019-03-24T23:23:13.923Z,6.57
2019-03-24T23:25:43.421Z,5.50
2019-03-24T23:28:13.437Z,7.70
2019-03-24T23:30:42.997Z,6.27
2019-03-24T23:33:12.536Z,6.10
2019-03-24T23:35:42.092Z,5.97
2019-03-24T23:38:11.600Z,6.30
2019-03-24T23:40:41.070Z,6.23
2019-03-24T23:43:10.869Z,4.17
2019-03-24T23:45:40.421Z,6.50
2019-03-24T23:48:09.896Z,6.60
2019-03-24T23:50:39.391Z,5.30
2019-03-24T23:53:08.868Z,6.43
2019-03-24T23:55:38.338Z,4.93
2019-03-24T23:58:07.899Z,5.30
